Terminal Aerodrome Forecast
Issued by NWS

Home | Current Version | Previous Version | Text Only | Print | Product List | Glossary On
Versions: 1 2 3 4 5 6 7 8 9 10 11 12 13 14 15 16 17 18
893
FTUS46 KSEW 270520
TAFOLM
TAF
KOLM 270520Z 2706/2806 21007KT P6SM SCT040 BKN100
     FM270900 21007KT P6SM SCT015 BKN040 OVC080
      TEMPO 2710/2714 5SM -SHRA BKN015 OVC040
     FM271800 21007KT P6SM SCT020 BKN040
     FM272200 36008KT P6SM SCT040=

USA.gov is the U.S. government's official web portal to all federal, state and local government web resources and services.